Latest Coastal Weather Observations for Port Lincoln Airport

IDS60701

Issued at 7:15 pm CST Wednesday 23 April 2014 (issued every 10 minutes, with the page automatically refreshed every 10 minutes)

About coastal observations | Map of coastal stations | Coastal observations for SA | Marine services | Other Formats
Station Details ID: 018192 Name: PORT LINCOLN AWS Lat: -34.60 Lon: 135.88 Height: 8.5 m
Data from the previous 72 hours. | See also: Recent months at Port Lincoln Airport
Date/Time
CST
Temp

°C
Wind Pressure Rain
since 9am
mm
Weather Cloud Vis
km
Sea
Height
m
Swell
Dir
 
Speed
knots
Gust
knots
hPa Trend Height
m
Period
s
Dir
23/07:00pm 16.2 WNW 7 11 1015.6 - 0.0 - Partly cloudy 10 - - - -
23/06:30pm 16.4 W 9 12 1015.2 - 0.0 - - 10 - - - -
23/06:00pm 17.4 WNW 12 17 1014.9 - 0.0 - Mostly cloudy 10 - - - -
23/05:30pm 18.1 W 14 18 1014.7 - 0.0 - Cloudy 10 - - - -
23/05:00pm 18.6 WNW 12 17 1014.6 - 0.0 - Partly cloudy 10 - - - -
23/04:30pm 19.9 W 15 19 1014.8 - 0.0 - Partly cloudy 10 - - - -
23/04:00pm 21.9 W 14 17 1014.4 - 0.0 - Cloudy 10 - - - -
23/03:30pm 22.3 NW 14 18 1014.2 - 0.0 - - 10 - - - -
23/03:00pm 22.3 NNW 11 18 1014.2 - 0.0 - - 10 - - - -
23/02:30pm 22.3 WNW 12 17 1014.3 - 0.0 - - 10 - - - -
23/02:00pm 22.4 WNW 11 17 1014.3 - 0.0 - - 10 - - - -
23/01:30pm 23.1 WNW 10 14 1014.7 - 0.0 - - 10 - - - -
23/01:00pm 21.8 NNW 8 14 1015.2 - 0.0 - - 10 - - - -
23/12:30pm 21.0 NW 9 13 1016.0 - 0.0 - - 10 - - - -
23/12:00pm 20.4 NW 8 11 1016.6 - 0.0 - - 10 - - - -
23/11:30am 19.9 W 8 11 1017.2 - 0.0 - - 10 - - - -
23/11:00am 19.8 W 9 14 1017.6 - 0.0 - - 10 - - - -
23/10:30am 18.6 WNW 10 14 1018.1 - 0.0 - - 10 - - - -
23/10:00am 17.4 WNW 9 11 1018.4 - 0.0 - - 10 - - - -
23/09:30am 16.7 NW 7 11 1018.7 - 0.0 - - 10 - - - -
23/09:00am 14.2 NNW 5 6 1018.8 - 0.0 - - 10 - - - -
23/08:30am 13.1 NNW 7 8 1018.7 - 0.0 - - 10 - - - -
23/08:00am 10.7 NW 6 9 1018.5 - 0.0 - - 10 - - - -
23/07:30am 9.7 NW 7 8 1018.3 - 0.0 - - 10 - - - -
23/07:00am 7.6 NNW 7 8 1018.0 - 0.0 - - 10 - - - -
23/06:30am 8.1 NW 6 7 1017.7 - 0.0 - - 10 - - - -
23/06:00am 8.9 NNW 7 8 1017.4 - 0.0 - - 10 - - - -
23/05:30am 9.0 NW 6 7 1017.5 - 0.0 - - 10 - - - -
23/05:00am 9.5 NW 10 11 1017.6 - 0.0 - - 10 - - - -
23/04:30am 9.0 NW 7 9 1017.4 - 0.0 - - 10 - - - -
23/04:00am 9.2 NW 9 10 1017.5 - 0.0 - - 10 - - - -
23/03:30am 9.1 NW 10 11 1017.7 - 0.0 - - 10 - - - -
23/03:00am 8.9 NW 7 9 1017.9 - 0.0 - - 10 - - - -
23/02:30am 9.0 NW 8 10 1018.3 - 0.0 - - 10 - - - -
23/02:00am 8.8 NW 7 7 1018.5 - 0.0 - - 10 - - - -
23/01:30am 8.8 NNW 7 8 1018.8 - 0.0 - - 10 - - - -
23/01:00am 9.1 NW 6 8 1019.0 - 0.0 - - 10 - - - -
23/12:30am 9.5 WNW 8 10 1019.2 - 0.0 - - 10 - - - -
23/12:00am 9.3 NNW 6 6 1019.2 - 0.0 - - 10 - - - -
 
Date/Time
CST
Temp

°C
Wind Pressure Rain
since 9am
mm
Weather Cloud Vis
km
Sea
Height
m
Swell
Dir
 
Speed
knots
Gust
knots
hPa Trend Height
m
Period
s
Dir
22/11:30pm 9.9 WNW 7 8 1019.5 - 0.0 - - 10 - - - -
22/11:00pm 9.8 NW 5 6 1019.7 - 0.0 - - 10 - - - -
22/10:30pm 10.1 NW 7 7 1019.9 - 0.0 - - 10 - - - -
22/10:00pm 10.2 WNW 7 8 1019.9 - 0.0 - Partly cloudy 10 - - - -
22/09:30pm 10.5 NW 6 7 1020.0 - 0.0 - - 10 - - - -
22/09:00pm 10.5 NW 6 7 1019.9 - 0.0 - - 10 - - - -
22/08:30pm 10.7 WNW 3 6 1019.8 - 0.0 - - 10 - - - -
22/08:00pm 11.3 SW 5 5 1019.6 - 0.0 - - 10 - - - -
22/07:30pm 12.9 SW 4 5 1019.4 - 0.0 - - 10 - - - -
22/07:00pm 13.5 SW 5 7 1019.4 - 0.0 - - 10 - - - -
22/06:30pm 15.0 SSW 6 7 1019.1 - 0.0 - - 10 - - - -
22/06:00pm 16.3 SSW 9 11 1018.9 - 0.0 - - 10 - - - -
22/05:30pm 16.9 S 10 13 1018.6 - 0.0 - - 10 - - - -
22/05:00pm 17.6 S 12 15 1018.6 - 0.0 - - 10 - - - -
22/04:30pm 17.9 S 12 14 1018.4 - 0.0 - Partly cloudy 10 - - - -
22/04:00pm 18.5 S 12 15 1018.3 - 0.0 - Partly cloudy 10 - - - -
22/03:30pm 19.1 SSE 12 15 1018.3 - 0.0 - Partly cloudy 10 - - - -
22/03:00pm 19.7 SSE 13 16 1018.2 - 0.0 - Mostly cloudy 10 - - - -
22/02:30pm 19.2 SSE 13 16 1018.1 - 0.0 - Partly cloudy 10 - - - -
22/02:00pm 19.5 SSE 14 17 1017.9 - 0.0 - - 10 - - - -
22/01:30pm 18.9 S 15 18 1018.0 - 0.0 - - 10 - - - -
22/01:00pm 20.3 S 15 18 1018.3 - 0.0 - Partly cloudy 10 - - - -
22/12:30pm 20.6 SSE 14 16 1018.5 - 0.0 - Partly cloudy 10 - - - -
22/12:00pm 19.6 SSE 13 17 1018.7 - 0.0 - Mostly clear 10 - - - -
22/11:30am 20.2 S 13 16 1018.9 - 0.0 - Partly cloudy 10 - - - -
22/11:00am 19.5 SSE 12 17 1019.1 - 0.0 - Partly cloudy 10 - - - -
22/10:30am 19.4 S 13 17 1019.1 - 0.0 - Partly cloudy 10 - - - -
22/10:00am 19.0 S 14 17 1019.1 - 0.0 - Partly cloudy 10 - - - -
22/09:30am 18.7 S 13 17 1019.0 - 0.0 - Partly cloudy 10 - - - -
22/09:00am 17.1 SSW 12 16 1019.0 - 0.0 - Mostly cloudy 10 - - - -
22/08:30am 17.0 SSW 8 10 1018.9 - 0.0 - Partly cloudy 10 - - - -
22/08:00am 15.4 SSW 9 11 1018.4 - 0.0 - Partly cloudy 10 - - - -
22/07:30am 13.6 SW 7 9 1017.9 - 0.0 - - 10 - - - -
22/07:00am 12.5 SW 5 8 1017.5 - 0.0 - - 10 - - - -
22/06:30am 13.4 SW 9 11 1017.0 - 0.0 - - 10 - - - -
22/06:00am 13.3 SW 6 10 1016.7 - 0.0 - - 10 - - - -
22/05:30am 13.3 SW 7 9 1016.5 - 0.0 - - 10 - - - -
22/05:00am 13.7 SW 9 11 1016.0 - 0.0 - - 10 - - - -
22/04:30am 13.8 SW 7 10 1015.8 - 0.0 - Partly cloudy 10 - - - -
22/04:00am 13.9 SW 6 8 1015.4 - 0.0 - - 10 - - - -
22/03:30am 14.0 SW 7 10 1015.3 - 0.0 - Partly cloudy 10 - - - -
22/03:00am 14.2 WSW 7 9 1015.1 - 0.0 - Mostly clear 10 - - - -
22/02:30am 13.6 SW 7 8 1015.0 - 0.0 - Partly cloudy 10 - - - -
22/02:00am 13.5 WSW 5 5 1014.8 - 0.0 - - 10 - - - -
22/01:30am 15.2 SSW 7 8 1014.6 - 0.0 - - 10 - - - -
22/01:00am 15.8 SSW 7 10 1014.4 - 0.0 - Partly cloudy 10 - - - -
22/12:30am 16.4 SSW 9 14 1014.5 - 0.0 - - 10 - - - -
22/12:00am 16.9 SSW 12 15 1013.9 - 0.0 - Mostly clear 10 - - - -
 
Date/Time
CST
Temp

°C
Wind Pressure Rain
since 9am
mm
Weather Cloud Vis
km
Sea
Height
m
Swell
Dir
 
Speed
knots
Gust
knots
hPa Trend Height
m
Period
s
Dir
21/11:30pm 17.2 SSW 14 19 1013.4 - 0.0 - Partly cloudy 10 - - - -
21/11:00pm 17.5 SSW 10 12 1013.6 - 0.0 - Partly cloudy 10 - - - -
21/10:30pm 17.5 S 10 14 1013.5 - 0.0 - Partly cloudy 10 - - - -
21/10:00pm 17.7 S 13 18 1013.4 - 0.0 - Partly cloudy 10 - - - -
21/09:30pm 18.2 S 9 13 1013.2 - 0.0 - Partly cloudy 10 - - - -
21/09:23pm 18.1 S 9 13 1012.4 - 0.0 - Partly cloudy 10 - - - -
21/09:06pm 18.1 SSW 11 15 1012.2 - 0.0 - Partly cloudy 10 - - - -
21/09:00pm 18.0 S 7 12 1012.3 - 0.0 - Mostly clear 10 - - - -
21/08:30pm 18.2 S 6 9 1011.7 - 0.0 - - 10 - - - -
21/08:00pm 18.4 S 10 14 1011.3 - 0.0 - - 10 - - - -
21/07:39pm 19.0 SSW 11 15 1012.2 - 0.0 - Partly cloudy 10 - - - -
21/07:30pm 19.2 SSW 12 16 1011.9 - 0.0 - Partly cloudy 10 - - - -
21/07:21pm 19.4 S 11 15 1011.3 - 0.0 - Partly cloudy 10 - - - -
21/07:00pm 19.5 WSW 9 11 1011.0 - 0.0 - - 10 - - - -
21/06:30pm 19.6 SW 4 7 1010.3 - 0.0 - - 10 - - - -
21/06:00pm 20.4 CALM 0 6 1009.9 - 0.0 - - 10 - - - -
21/05:30pm 22.0 W 13 19 1009.5 - 0.0 - - 10 - - - -
21/05:00pm 23.5 W 15 20 1009.2 - 0.0 - - 10 - - - -
21/04:30pm 24.7 NW 18 22 1009.2 - 0.0 - - 10 - - - -
21/04:00pm 25.5 NW 23 30 1008.9 - 0.0 - - 10 - - - -
21/03:30pm 26.1 NW 20 26 1008.8 - 0.0 - - 10 - - - -
21/03:00pm 27.3 WNW 23 30 1008.8 - 0.0 - - 10 - - - -
21/02:47pm 26.7 WNW 22 32 1008.8 - 0.0 - - 10 - - - -
21/02:30pm 27.3 WNW 23 29 1009.0 - 0.0 - - 10 - - - -
21/02:00pm 29.3 WNW 26 35 1009.0 - 0.0 - - 10 - - - -
21/01:31pm 28.2 WNW 28 38 1009.3 - 0.0 - - 10 - - - -
21/01:30pm 28.1 WNW 29 38 1009.2 - 0.0 - - 10 - - - -
21/01:22pm 28.6 WNW 28 38 1009.3 - 0.0 - - 10 - - - -
21/01:00pm 29.3 NW 26 35 1009.3 - 0.0 - - 10 - - - -
21/12:35pm 30.4 NW 26 36 1009.4 - 0.0 - - 10 - - - -
21/12:30pm 30.0 NW 27 35 1009.4 - 0.0 - - 10 - - - -
21/12:10pm 30.5 NW 29 39 1009.6 - 0.0 - - 10 - - - -
21/12:00pm 31.0 NW 30 41 1009.7 - 0.0 - - 5 - - - -
21/11:57am 30.6 NW 31 41 1009.8 - 0.0 - - 5 - - - -
21/11:44am 30.9 NW 25 37 1009.9 - 0.0 - - 10 - - - -
21/11:30am 30.5 NW 23 30 1010.3 - 0.0 - - 10 - - - -
21/11:00am 29.4 NW 25 33 1010.7 - 0.0 - - 10 - - - -
21/10:30am 28.6 NNW 23 31 1010.5 - 0.0 - - 10 - - - -
21/10:00am 27.4 NNW 21 29 1010.6 - 0.0 - - 10 - - - -
21/09:33am 26.0 NNW 20 30 1010.7 - 0.0 - - 10 - - - -
21/09:30am 25.7 NNW 22 30 1010.6 - 0.0 - - 10 - - - -
21/09:00am 25.1 NNW 24 35 1010.6 - 0.0 - - 10 - - - -
21/08:55am 25.0 NNW 24 35 1010.6 - 0.0 - - 10 - - - -
21/08:30am 23.4 NNW 22 29 1010.4 - 0.0 - - 10 - - - -
21/08:00am 23.0 NNW 22 34 1010.2 - 0.0 - - 10 - - - -
21/07:47am 23.2 NNW 22 32 1010.2 - 0.0 - - 10 - - - -
21/07:30am 23.1 NNW 23 32 1010.1 - 0.0 - - 10 - - - -
21/07:01am 23.0 NNW 20 30 1010.1 - 0.0 - - 10 - - - -
21/07:00am 22.8 NNW 20 29 1010.1 - 0.0 - - 10 - - - -
21/06:38am 22.6 NNW 21 31 1009.9 - 0.0 - - 10 - - - -
21/06:30am 22.6 NNW 21 29 1009.8 - 0.0 - - 10 - - - -
21/06:00am 22.7 NNW 21 29 1010.0 - 0.0 - - 10 - - - -
21/05:30am 22.9 NNW 20 27 1010.0 - 0.0 - - 10 - - - -
21/05:23am 22.6 NNW 20 30 1010.1 - 0.0 - - 10 - - - -
21/05:00am 22.3 NNW 19 25 1009.9 - 0.0 - - 10 - - - -
21/04:30am 22.9 NNW 22 29 1009.8 - 0.0 - - 10 - - - -
21/04:00am 22.7 N 21 32 1009.6 - 0.0 - - 10 - - - -
21/03:42am 22.7 N 21 31 1009.5 - 0.0 - - 10 - - - -
21/03:30am 22.9 N 23 32 1009.7 - 0.0 - - 10 - - - -
21/03:19am 22.8 N 21 31 1009.9 - 0.0 - - 10 - - - -
21/03:10am 22.5 N 18 27 1009.9 - 0.0 - - 10 - - - -
21/03:00am 19.2 NNE 5 16 1010.6 - 0.0 - - 10 - - - -
21/02:30am 17.5 NNE 4 9 1011.6 - 0.0 - - 10 - - - -
21/02:00am 16.4 NE 5 7 1012.1 - 0.0 - - 10 - - - -
21/01:30am 16.6 NNE 4 8 1012.5 - 0.0 - - 10 - - - -
21/01:00am 16.6 NNE 4 7 1012.9 - 0.0 - - 10 - - - -
21/12:30am 16.6 NNE 3 6 1013.1 - 0.0 - - 10 - - - -
21/12:00am 16.7 NNE 6 8 1013.6 - 0.0 - - 10 - - - -
 
Date/Time
CST
Temp

°C
Wind Pressure Rain
since 9am
mm
Weather Cloud Vis
km
Sea
Height
m
Swell
Dir
 
Speed
knots
Gust
knots
hPa Trend Height
m
Period
s
Dir
20/11:30pm 16.7 NE 5 7 1014.0 - 0.0 - - 10 - - - -
20/11:00pm 16.6 NNE 6 8 1014.4 - 0.0 - Partly cloudy 10 - - - -
20/10:30pm 16.5 N 5 7 1015.0 - 0.0 - Partly cloudy 10 - - - -
20/10:00pm 16.5 N 4 7 1015.0 - 0.0 - - 10 - - - -
20/09:30pm 16.6 N 5 7 1015.5 - 0.0 - Partly cloudy 10 - - - -
20/09:00pm 17.3 NNE 7 11 1015.8 - 0.0 - Mostly clear 10 - - - -
20/08:30pm 18.2 NE 9 15 1015.8 - 0.0 - Cloudy 10 - - - -
20/08:00pm 18.1 NE 11 15 1015.8 - 0.0 - - 10 - - - -
20/07:30pm 18.0 ENE 9 13 1016.3 - 0.0 - Partly cloudy 10 - - - -

Other Formats:

Comma delimited format used in spreadsheet applications
http://www.bom.gov.au/fwo/IDS60701/IDS60701.95661.axf

JavaScript Object Notation format (JSON) in row-major order
http://www.bom.gov.au/fwo/IDS60701/IDS60701.95661.json